PWSweather.com
Personal Weather Stations
Station Observations
SBERGENWX
Wood Ridge, NJ 07075

Wood Ridge, NJ 07075

Lat: 40.851667, Lon: -74.088131

Elevation: 177

Station Type: Davis Vantage Vue

http://201weather.com/

High Low Average
Temperature 72.4°F22.4°F 66.8°F19.3°F 69.5°F20.8°F
Dew Point 66.1°F18.9°F 60.2°F15.7°F 63.0°F17.2°F
Winds 6.9 mph -11.1 mph - Calm Calm 2.1 mph 3.4 mph
Wind Gusts 11.5 mph18.5 mph -- 3.9 mph6.3 mph
Humidity 84% 76% 80%
Pressure 30.25 in1024.40 in 29.97 in1014.90 in -
Precipitation 0.00 in0.00 in - -
Hour Temp Dew Point Humidity Winds Wind Gusts Pressure Precip Precip Rate Daily Precip Total
12:00 AM 67.1°F19.5°C 61.1°F16.2°C 81% 1.2 mph SSW1.9 kmh SSW 2.3 mph3.7 kmh 30.24 in1024.0 mb - 0.00 in0.0 mm 0.00 in0.0 mm
12:15 AM 67.2°F19.6°C 61.2°F16.2°C 81% Calm Calm 2.3 mph3.7 kmh 30.24 in1024.0 mb - 0.00 in0.0 mm 0.00 in0.0 mm
12:30 AM 67.1°F19.5°C 61.1°F16.2°C 81% Calm Calm -- 30.25 in1024.4 mb - 0.00 in0.0 mm 0.00 in0.0 mm
12:45 AM 67.0°F19.4°C 61.0°F16.1°C 81% Calm Calm 1.2 mph1.9 kmh 30.25 in1024.4 mb - 0.00 in0.0 mm 0.00 in0.0 mm
01:00 AM 66.9°F19.4°C 60.5°F15.8°C 80% Calm Calm 1.2 mph1.9 kmh 30.25 in1024.4 mb - 0.00 in0.0 mm 0.00 in0.0 mm
01:15 AM 66.9°F19.4°C 60.9°F16.1°C 81% Calm Calm 1.2 mph1.9 kmh 30.24 in1024.0 mb - 0.00 in0.0 mm 0.00 in0.0 mm
01:30 AM 66.8°F19.3°C 60.4°F15.8°C 80% 1.2 mph SSW1.9 kmh SSW 2.3 mph3.7 kmh 30.24 in1024.0 mb - 0.00 in0.0 mm 0.00 in0.0 mm
01:45 AM 66.8°F19.3°C 60.4°F15.8°C 80% Calm Calm -- 30.23 in1023.7 mb - 0.00 in0.0 mm 0.00 in0.0 mm
02:00 AM 66.9°F19.4°C 60.5°F15.8°C 80% 1.2 mph SE1.9 kmh SE 2.3 mph3.7 kmh 30.23 in1023.7 mb - 0.00 in0.0 mm 0.00 in0.0 mm
02:15 AM 66.9°F19.4°C 60.5°F15.8°C 80% 1.2 mph SE1.9 kmh SE 2.3 mph3.7 kmh 30.23 in1023.7 mb - 0.00 in0.0 mm 0.00 in0.0 mm
02:30 AM 66.9°F19.4°C 60.5°F15.8°C 80% 1.2 mph S1.9 kmh S 1.2 mph1.9 kmh 30.22 in1023.4 mb - 0.00 in0.0 mm 0.00 in0.0 mm
02:45 AM 66.9°F19.4°C 60.2°F15.7°C 79% 1.2 mph SE1.9 kmh SE 2.3 mph3.7 kmh 30.22 in1023.4 mb - 0.00 in0.0 mm 0.00 in0.0 mm
03:00 AM 66.9°F19.4°C 60.2°F15.7°C 79% 1.2 mph SSE1.9 kmh SSE 2.3 mph3.7 kmh 30.22 in1023.4 mb - 0.00 in0.0 mm 0.00 in0.0 mm
03:15 AM 67.0°F19.4°C 60.3°F15.7°C 79% Calm Calm 2.3 mph3.7 kmh 30.22 in1023.4 mb - 0.00 in0.0 mm 0.00 in0.0 mm
03:30 AM 67.0°F19.4°C 60.6°F15.9°C 80% Calm Calm -- 30.22 in1023.4 mb - 0.00 in0.0 mm 0.00 in0.0 mm
03:45 AM 67.1°F19.5°C 61.1°F16.2°C 81% Calm Calm -- 30.22 in1023.4 mb - 0.00 in0.0 mm 0.00 in0.0 mm
04:00 AM 67.0°F19.4°C 61.0°F16.1°C 81% 1.2 mph SSW1.9 kmh SSW 3.5 mph5.6 kmh 30.23 in1023.7 mb - 0.00 in0.0 mm 0.00 in0.0 mm
04:15 AM 67.0°F19.4°C 60.6°F15.9°C 80% Calm Calm 1.2 mph1.9 kmh 30.22 in1023.4 mb - 0.00 in0.0 mm 0.00 in0.0 mm
04:30 AM 66.9°F19.4°C 60.5°F15.8°C 80% Calm Calm 2.3 mph3.7 kmh 30.23 in1023.7 mb - 0.00 in0.0 mm 0.00 in0.0 mm
04:45 AM 67.0°F19.4°C 60.6°F15.9°C 80% Calm Calm 2.3 mph3.7 kmh 30.23 in1023.7 mb - 0.00 in0.0 mm 0.00 in0.0 mm
05:00 AM 67.0°F19.4°C 60.6°F15.9°C 80% 2.3 mph SW3.7 kmh SW 3.5 mph5.6 kmh 30.23 in1023.7 mb - 0.00 in0.0 mm 0.00 in0.0 mm
05:15 AM 67.1°F19.5°C 61.1°F16.2°C 81% 1.2 mph SW1.9 kmh SW 2.3 mph3.7 kmh 30.23 in1023.7 mb - 0.00 in0.0 mm 0.00 in0.0 mm
05:30 AM 66.9°F19.4°C 60.9°F16.1°C 81% 1.2 mph SSW1.9 kmh SSW 2.3 mph3.7 kmh 30.23 in1023.7 mb - 0.00 in0.0 mm 0.00 in0.0 mm
05:45 AM 67.0°F19.4°C 61.0°F16.1°C 81% Calm Calm 1.2 mph1.9 kmh 30.23 in1023.7 mb - 0.00 in0.0 mm 0.00 in0.0 mm
06:00 AM 67.0°F19.4°C 61.0°F16.1°C 81% 1.2 mph SE1.9 kmh SE 2.3 mph3.7 kmh 30.23 in1023.7 mb - 0.00 in0.0 mm 0.00 in0.0 mm
06:15 AM 67.2°F19.6°C 61.1°F16.2°C 81% 1.2 mph SW1.9 kmh SW 3.5 mph5.6 kmh 30.24 in1024.0 mb - 0.00 in0.0 mm 0.00 in0.0 mm
06:30 AM 67.2°F19.6°C 61.2°F16.2°C 81% 1.2 mph SSW1.9 kmh SSW 3.5 mph5.6 kmh 30.24 in1024.0 mb - 0.00 in0.0 mm 0.00 in0.0 mm
06:45 AM 67.2°F19.6°C 61.2°F16.2°C 81% 1.2 mph S1.9 kmh S 3.5 mph5.6 kmh 30.24 in1024.0 mb - 0.00 in0.0 mm 0.00 in0.0 mm
07:00 AM 67.2°F19.6°C 61.2°F16.2°C 81% 1.2 mph SW1.9 kmh SW 2.3 mph3.7 kmh 30.24 in1024.0 mb - 0.00 in0.0 mm 0.00 in0.0 mm
07:15 AM 67.2°F19.6°C 61.2°F16.2°C 81% 1.2 mph SSW1.9 kmh SSW 2.3 mph3.7 kmh 30.24 in1024.0 mb - 0.00 in0.0 mm 0.00 in0.0 mm
07:30 AM 67.2°F19.6°C 61.2°F16.2°C 81% 3.5 mph SSW5.6 kmh SSW 6.9 mph11.1 kmh 30.24 in1024.0 mb - 0.00 in0.0 mm 0.00 in0.0 mm
07:45 AM 67.3°F19.6°C 61.3°F16.3°C 81% 1.2 mph SSW1.9 kmh SSW 2.3 mph3.7 kmh 30.24 in1024.0 mb - 0.00 in0.0 mm 0.00 in0.0 mm
08:00 AM 67.3°F19.6°C 61.3°F16.3°C 81% Calm Calm 2.3 mph3.7 kmh 30.24 in1024.0 mb - 0.00 in0.0 mm 0.00 in0.0 mm
08:15 AM 67.5°F19.7°C 60.8°F16.0°C 79% 3.5 mph SW5.6 kmh SW 3.5 mph5.6 kmh 30.24 in1024.0 mb - 0.00 in0.0 mm 0.00 in0.0 mm
08:30 AM 67.6°F19.8°C 60.9°F16.1°C 79% 3.5 mph SW5.6 kmh SW 3.5 mph5.6 kmh 30.24 in1024.0 mb - 0.00 in0.0 mm 0.00 in0.0 mm
08:45 AM 67.7°F19.8°C 61.0°F16.1°C 79% 1.2 mph SSW1.9 kmh SSW 3.5 mph5.6 kmh 30.24 in1024.0 mb - 0.00 in0.0 mm 0.00 in0.0 mm
09:00 AM 67.9°F19.9°C 60.8°F16.0°C 78% 2.3 mph SW3.7 kmh SW 5.8 mph9.3 kmh 30.24 in1024.0 mb - 0.00 in0.0 mm 0.00 in0.0 mm
09:15 AM 68.1°F20.1°C 60.6°F15.9°C 77% 3.5 mph SSW5.6 kmh SSW 6.9 mph11.1 kmh 30.23 in1023.7 mb - 0.00 in0.0 mm 0.00 in0.0 mm
09:30 AM 68.3°F20.2°C 61.2°F16.2°C 78% 3.5 mph SSW5.6 kmh SSW 4.6 mph7.4 kmh 30.23 in1023.7 mb - 0.00 in0.0 mm 0.00 in0.0 mm
09:45 AM 68.3°F20.2°C 61.5°F16.4°C 79% 1.2 mph SW1.9 kmh SW 3.5 mph5.6 kmh 30.23 in1023.7 mb - 0.00 in0.0 mm 0.00 in0.0 mm
10:00 AM 68.3°F20.2°C 61.5°F16.4°C 79% 1.2 mph SW1.9 kmh SW 3.5 mph5.6 kmh 30.23 in1023.7 mb - 0.00 in0.0 mm 0.00 in0.0 mm
10:15 AM 68.6°F20.3°C 61.8°F16.6°C 79% 2.3 mph SW3.7 kmh SW 4.6 mph7.4 kmh 30.23 in1023.7 mb - 0.00 in0.0 mm 0.00 in0.0 mm
10:30 AM 68.7°F20.4°C 61.6°F16.4°C 78% 3.5 mph SSW5.6 kmh SSW 4.6 mph7.4 kmh 30.23 in1023.7 mb - 0.00 in0.0 mm 0.00 in0.0 mm
10:45 AM 69.0°F20.6°C 61.8°F16.6°C 78% 3.5 mph SSW5.6 kmh SSW 5.8 mph9.3 kmh 30.22 in1023.4 mb - 0.00 in0.0 mm 0.00 in0.0 mm
11:00 AM 69.2°F20.7°C 61.7°F16.5°C 77% 2.3 mph SSW3.7 kmh SSW 4.6 mph7.4 kmh 30.21 in1023.0 mb - 0.00 in0.0 mm 0.00 in0.0 mm
11:15 AM 69.6°F20.9°C 62.1°F16.7°C 77% 2.3 mph S3.7 kmh S 3.5 mph5.6 kmh 30.21 in1023.0 mb - 0.00 in0.0 mm 0.00 in0.0 mm
11:30 AM 70.0°F21.1°C 62.5°F16.9°C 77% Calm Calm 3.5 mph5.6 kmh 30.20 in1022.7 mb - 0.00 in0.0 mm 0.00 in0.0 mm
11:45 AM 70.1°F21.2°C 62.2°F16.8°C 76% 3.5 mph SSW5.6 kmh SSW 3.5 mph5.6 kmh 30.19 in1022.4 mb - 0.00 in0.0 mm 0.00 in0.0 mm
12:00 PM 70.3°F21.3°C 62.4°F16.9°C 76% 2.3 mph S3.7 kmh S 3.5 mph5.6 kmh 30.18 in1022.0 mb - 0.00 in0.0 mm 0.00 in0.0 mm
12:15 PM 70.5°F21.4°C 62.6°F17.0°C 76% 2.3 mph SSW3.7 kmh SSW 5.8 mph9.3 kmh 30.18 in1022.0 mb - 0.00 in0.0 mm 0.00 in0.0 mm
12:30 PM 70.4°F21.3°C 62.5°F16.9°C 76% 1.2 mph SSW1.9 kmh SSW 2.3 mph3.7 kmh 30.17 in1021.7 mb - 0.00 in0.0 mm 0.00 in0.0 mm
12:45 PM 70.8°F21.6°C 62.9°F17.2°C 76% 1.2 mph S1.9 kmh S 2.3 mph3.7 kmh 30.17 in1021.7 mb - 0.00 in0.0 mm 0.00 in0.0 mm
01:00 PM 71.0°F21.7°C 63.1°F17.3°C 76% 2.3 mph S3.7 kmh S 4.6 mph7.4 kmh 30.17 in1021.7 mb - 0.00 in0.0 mm 0.00 in0.0 mm
01:15 PM 70.9°F21.6°C 63.0°F17.2°C 76% 2.3 mph S3.7 kmh S 4.6 mph7.4 kmh 30.16 in1021.3 mb - 0.00 in0.0 mm 0.00 in0.0 mm
01:30 PM 70.5°F21.4°C 62.9°F17.2°C 77% 2.3 mph SSE3.7 kmh SSE 4.6 mph7.4 kmh 30.15 in1021.0 mb - 0.00 in0.0 mm 0.00 in0.0 mm
01:45 PM 70.4°F21.3°C 63.2°F17.3°C 78% 2.3 mph S3.7 kmh S 4.6 mph7.4 kmh 30.15 in1021.0 mb - 0.00 in0.0 mm 0.00 in0.0 mm
02:00 PM 70.2°F21.2°C 63.4°F17.4°C 79% 2.3 mph SSW3.7 kmh SSW 3.5 mph5.6 kmh 30.14 in1020.7 mb - 0.00 in0.0 mm 0.00 in0.0 mm
02:15 PM 70.3°F21.3°C 63.5°F17.5°C 79% 2.3 mph S3.7 kmh S 3.5 mph5.6 kmh 30.13 in1020.3 mb - 0.00 in0.0 mm 0.00 in0.0 mm
02:30 PM 70.5°F21.4°C 63.7°F17.6°C 79% 2.3 mph S3.7 kmh S 3.5 mph5.6 kmh 30.12 in1020.0 mb - 0.00 in0.0 mm 0.00 in0.0 mm
02:45 PM 71.2°F21.8°C 64.0°F17.8°C 78% 1.2 mph S1.9 kmh S 2.3 mph3.7 kmh 30.11 in1019.6 mb - 0.00 in0.0 mm 0.00 in0.0 mm
03:00 PM 71.2°F21.8°C 64.0°F17.8°C 78% 2.3 mph SE3.7 kmh SE 3.5 mph5.6 kmh 30.11 in1019.6 mb - 0.00 in0.0 mm 0.00 in0.0 mm
03:15 PM 71.5°F21.9°C 64.3°F17.9°C 78% 3.5 mph SSW5.6 kmh SSW 4.6 mph7.4 kmh 30.11 in1019.6 mb - 0.00 in0.0 mm 0.00 in0.0 mm
03:30 PM 71.3°F21.8°C 64.8°F18.2°C 80% 1.2 mph S1.9 kmh S 6.9 mph11.1 kmh 30.10 in1019.3 mb - 0.00 in0.0 mm 0.00 in0.0 mm
03:45 PM 71.3°F21.8°C 64.4°F18.0°C 79% 3.5 mph SSW5.6 kmh SSW 3.5 mph5.6 kmh 30.09 in1019.0 mb - 0.00 in0.0 mm 0.00 in0.0 mm
04:00 PM 71.1°F21.7°C 65.0°F18.3°C 81% 1.2 mph S1.9 kmh S 2.3 mph3.7 kmh 30.09 in1019.0 mb - 0.00 in0.0 mm 0.00 in0.0 mm
04:15 PM 71.0°F21.7°C 64.9°F18.3°C 81% 3.5 mph S5.6 kmh S 4.6 mph7.4 kmh 30.08 in1018.6 mb - 0.00 in0.0 mm 0.00 in0.0 mm
04:30 PM 71.1°F21.7°C 65.0°F18.3°C 81% 2.3 mph S3.7 kmh S 3.5 mph5.6 kmh 30.07 in1018.3 mb - 0.00 in0.0 mm 0.00 in0.0 mm
04:45 PM 71.3°F21.8°C 65.1°F18.4°C 81% 3.5 mph SSW5.6 kmh SSW 3.5 mph5.6 kmh 30.06 in1017.9 mb - 0.00 in0.0 mm 0.00 in0.0 mm
05:00 PM 71.6°F22.0°C 65.5°F18.6°C 81% 1.2 mph S1.9 kmh S 3.5 mph5.6 kmh 30.06 in1017.9 mb - 0.00 in0.0 mm 0.00 in0.0 mm
05:15 PM 71.8°F22.1°C 65.7°F18.7°C 81% 2.3 mph SSW3.7 kmh SSW 3.5 mph5.6 kmh 30.05 in1017.6 mb - 0.00 in0.0 mm 0.00 in0.0 mm
05:30 PM 72.0°F22.2°C 65.8°F18.8°C 81% 2.3 mph SSW3.7 kmh SSW 4.6 mph7.4 kmh 30.05 in1017.6 mb - 0.00 in0.0 mm 0.00 in0.0 mm
05:45 PM 72.3°F22.4°C 65.8°F18.8°C 80% 1.2 mph SSW1.9 kmh SSW 3.5 mph5.6 kmh 30.04 in1017.3 mb - 0.00 in0.0 mm 0.00 in0.0 mm
06:00 PM 72.4°F22.4°C 65.5°F18.6°C 79% 4.6 mph S7.4 kmh S 5.8 mph9.3 kmh 30.03 in1016.9 mb - 0.00 in0.0 mm 0.00 in0.0 mm
06:15 PM 72.3°F22.4°C 65.8°F18.8°C 80% 2.3 mph SE3.7 kmh SE 4.6 mph7.4 kmh 30.03 in1016.9 mb - 0.00 in0.0 mm 0.00 in0.0 mm
06:30 PM 72.2°F22.3°C 66.0°F18.9°C 81% 1.2 mph S1.9 kmh S 2.3 mph3.7 kmh 30.02 in1016.6 mb - 0.00 in0.0 mm 0.00 in0.0 mm
06:45 PM 72.1°F22.3°C 65.9°F18.8°C 81% 1.2 mph S1.9 kmh S 3.5 mph5.6 kmh 30.00 in1015.9 mb - 0.00 in0.0 mm 0.00 in0.0 mm
07:00 PM 72.3°F22.4°C 65.8°F18.8°C 80% 2.3 mph SSW3.7 kmh SSW 4.6 mph7.4 kmh 30.00 in1015.9 mb - 0.00 in0.0 mm 0.00 in0.0 mm
07:15 PM 72.4°F22.4°C 65.9°F18.8°C 80% 4.6 mph SSW7.4 kmh SSW 3.5 mph5.6 kmh 30.00 in1015.9 mb - 0.00 in0.0 mm 0.00 in0.0 mm
07:30 PM 72.3°F22.4°C 65.8°F18.8°C 80% 3.5 mph SSW5.6 kmh SSW 8.1 mph13.0 kmh 29.99 in1015.6 mb - 0.00 in0.0 mm 0.00 in0.0 mm
07:45 PM 72.3°F22.4°C 65.8°F18.8°C 80% 2.3 mph S3.7 kmh S 2.3 mph3.7 kmh 29.98 in1015.2 mb - 0.00 in0.0 mm 0.00 in0.0 mm
08:00 PM 72.2°F22.3°C 65.7°F18.7°C 80% 3.5 mph SSW5.6 kmh SSW 5.8 mph9.3 kmh 29.99 in1015.6 mb - 0.00 in0.0 mm 0.00 in0.0 mm
08:15 PM 72.0°F22.2°C 65.8°F18.8°C 81% 1.2 mph S1.9 kmh S 2.3 mph3.7 kmh 29.99 in1015.6 mb - 0.00 in0.0 mm 0.00 in0.0 mm
08:30 PM 71.8°F22.1°C 65.7°F18.7°C 81% 3.5 mph S5.6 kmh S 5.8 mph9.3 kmh 29.98 in1015.2 mb - 0.00 in0.0 mm 0.00 in0.0 mm
08:45 PM 71.8°F22.1°C 65.7°F18.7°C 81% 5.8 mph SW9.3 kmh SW 9.2 mph14.8 kmh 29.99 in1015.6 mb - 0.00 in0.0 mm 0.00 in0.0 mm
09:00 PM 71.8°F22.1°C 66.0°F18.9°C 82% 3.5 mph SSW5.6 kmh SSW 5.8 mph9.3 kmh 30.00 in1015.9 mb - 0.00 in0.0 mm 0.00 in0.0 mm
09:15 PM 71.8°F22.1°C 65.7°F18.7°C 81% 5.8 mph SW9.3 kmh SW 9.2 mph14.8 kmh 30.01 in1016.3 mb - 0.00 in0.0 mm 0.00 in0.0 mm
09:30 PM 71.7°F22.1°C 65.9°F18.8°C 82% 3.5 mph SSW5.6 kmh SSW 5.8 mph9.3 kmh 30.01 in1016.3 mb - 0.00 in0.0 mm 0.00 in0.0 mm
09:45 PM 71.7°F22.1°C 65.9°F18.8°C 82% 4.6 mph SW7.4 kmh SW 11.5 mph18.5 kmh 30.01 in1016.3 mb - 0.00 in0.0 mm 0.00 in0.0 mm
10:00 PM 71.7°F22.1°C 65.6°F18.7°C 81% 5.8 mph SW9.3 kmh SW 6.9 mph11.1 kmh 30.01 in1016.3 mb - 0.00 in0.0 mm 0.00 in0.0 mm
10:15 PM 71.5°F21.9°C 65.7°F18.7°C 82% 3.5 mph SSW5.6 kmh SSW 6.9 mph11.1 kmh 30.00 in1015.9 mb - 0.00 in0.0 mm 0.00 in0.0 mm
10:30 PM 71.4°F21.9°C 65.6°F18.7°C 82% 4.6 mph SW7.4 kmh SW 6.9 mph11.1 kmh 29.99 in1015.6 mb - 0.00 in0.0 mm 0.00 in0.0 mm
10:45 PM 71.3°F21.8°C 65.9°F18.8°C 83% 3.5 mph SW5.6 kmh SW 6.9 mph11.1 kmh 29.99 in1015.6 mb - 0.00 in0.0 mm 0.00 in0.0 mm
11:00 PM 71.2°F21.8°C 65.8°F18.8°C 83% 6.9 mph SSW11.1 kmh SSW 11.5 mph18.5 kmh 29.98 in1015.2 mb - 0.00 in0.0 mm 0.00 in0.0 mm
11:15 PM 71.2°F21.8°C 66.1°F18.9°C 84% 5.8 mph SW9.3 kmh SW 10.4 mph16.7 kmh 29.98 in1015.2 mb - 0.00 in0.0 mm 0.00 in0.0 mm
11:30 PM 71.2°F21.8°C 66.1°F18.9°C 84% 2.3 mph SSW3.7 kmh SSW 3.5 mph5.6 kmh 29.98 in1015.2 mb - 0.00 in0.0 mm 0.00 in0.0 mm
11:45 PM 71.2°F21.8°C 66.1°F18.9°C 84% 1.2 mph SW1.9 kmh SW 4.6 mph7.4 kmh 29.97 in1014.9 mb - 0.00 in0.0 mm 0.00 in0.0 mm